sensor_id;sensor_type;location;lat;lon;timestamp;P1;durP1;ratioP1;P2;durP2;ratioP2
10661;SDS011;5379;51.034;7.006;2023-04-24T04:31:44;2.03;;;1.93;;
10661;SDS011;5379;51.034;7.006;2023-04-24T04:34:11;2.07;;;1.97;;
10661;SDS011;5379;51.034;7.006;2023-04-24T04:36:39;3.73;;;2.10;;
10661;SDS011;5379;51.034;7.006;2023-04-24T04:39:06;3.63;;;2.20;;
10661;SDS011;5379;51.034;7.006;2023-04-24T04:41:33;2.70;;;2.50;;
10661;SDS011;5379;51.034;7.006;2023-04-24T04:44:00;2.17;;;2.07;;
10661;SDS011;5379;51.034;7.006;2023-04-24T04:46:29;1.60;;;1.60;;
10661;SDS011;5379;51.034;7.006;2023-04-24T04:49:00;2.30;;;2.17;;
10661;SDS011;5379;51.034;7.006;2023-04-24T04:51:27;3.43;;;2.13;;
10661;SDS011;5379;51.034;7.006;2023-04-24T04:53:55;1.97;;;1.87;;
10661;SDS011;5379;51.034;7.006;2023-04-24T04:56:22;1.50;;;1.50;;
10661;SDS011;5379;51.034;7.006;2023-04-24T04:58:49;2.07;;;1.90;;
10661;SDS011;5379;51.034;7.006;2023-04-24T05:01:16;1.83;;;1.73;;
10661;SDS011;5379;51.034;7.006;2023-04-24T05:03:43;1.90;;;1.80;;
10661;SDS011;5379;51.034;7.006;2023-04-24T05:06:11;2.23;;;2.03;;
10661;SDS011;5379;51.034;7.006;2023-04-24T05:08:38;1.60;;;1.60;;
10661;SDS011;5379;51.034;7.006;2023-04-24T05:11:05;1.57;;;1.57;;
10661;SDS011;5379;51.034;7.006;2023-04-24T05:13:33;1.93;;;1.83;;
10661;SDS011;5379;51.034;7.006;2023-04-24T05:16:00;2.03;;;1.90;;
10661;SDS011;5379;51.034;7.006;2023-04-24T05:18:27;1.90;;;1.80;;
10661;SDS011;5379;51.034;7.006;2023-04-24T05:20:54;1.50;;;1.50;;
10661;SDS011;5379;51.034;7.006;2023-04-24T05:23:22;1.80;;;1.70;;
10661;SDS011;5379;51.034;7.006;2023-04-24T05:25:49;1.63;;;1.53;;
10661;SDS011;5379;51.034;7.006;2023-04-24T05:28:16;1.60;;;1.60;;
10661;SDS011;5379;51.034;7.006;2023-04-24T05:30:43;1.50;;;1.50;;
10661;SDS011;5379;51.034;7.006;2023-04-24T05:33:10;2.10;;;2.00;;
10661;SDS011;5379;51.034;7.006;2023-04-24T05:35:39;2.27;;;2.13;;
10661;SDS011;5379;51.034;7.006;2023-04-24T05:38:10;2.07;;;1.77;;
10661;SDS011;5379;51.034;7.006;2023-04-24T05:40:39;2.20;;;2.00;;
10661;SDS011;5379;51.034;7.006;2023-04-24T05:43:06;1.77;;;1.77;;
10661;SDS011;5379;51.034;7.006;2023-04-24T05:45:32;1.80;;;1.80;;
10661;SDS011;5379;51.034;7.006;2023-04-24T05:48:01;2.50;;;2.40;;
10661;SDS011;5379;51.034;7.006;2023-04-24T05:50:28;2.20;;;2.10;;
10661;SDS011;5379;51.034;7.006;2023-04-24T05:52:55;2.03;;;1.93;;
10661;SDS011;5379;51.034;7.006;2023-04-24T05:55:23;1.60;;;1.60;;
10661;SDS011;5379;51.034;7.006;2023-04-24T05:57:51;1.73;;;1.67;;
10661;SDS011;5379;51.034;7.006;2023-04-24T06:00:19;1.50;;;1.50;;
10661;SDS011;5379;51.034;7.006;2023-04-24T06:02:46;2.43;;;2.33;;
10661;SDS011;5379;51.034;7.006;2023-04-24T06:05:14;1.60;;;1.50;;
10661;SDS011;5379;51.034;7.006;2023-04-24T06:07:40;1.63;;;1.53;;
10661;SDS011;5379;51.034;7.006;2023-04-24T06:10:08;1.53;;;1.53;;
10661;SDS011;5379;51.034;7.006;2023-04-24T06:12:36;1.93;;;1.83;;
10661;SDS011;5379;51.034;7.006;2023-04-24T06:15:05;1.90;;;1.43;;
10661;SDS011;5379;51.034;7.006;2023-04-24T06:17:33;1.80;;;1.70;;
10661;SDS011;5379;51.034;7.006;2023-04-24T06:20:00;1.60;;;1.57;;
10661;SDS011;5379;51.034;7.006;2023-04-24T06:22:28;2.07;;;1.63;;
10661;SDS011;5379;51.034;7.006;2023-04-24T06:24:55;1.80;;;1.50;;
10661;SDS011;5379;51.034;7.006;2023-04-24T06:27:22;1.77;;;1.67;;
10661;SDS011;5379;51.034;7.006;2023-04-24T06:29:49;1.50;;;1.50;;
10661;SDS011;5379;51.034;7.006;2023-04-24T06:32:21;1.30;;;1.30;;
10661;SDS011;5379;51.034;7.006;2023-04-24T06:34:50;1.07;;;1.07;;
10661;SDS011;5379;51.034;7.006;2023-04-24T06:37:18;0.90;;;0.90;;
10661;SDS011;5379;51.034;7.006;2023-04-24T06:39:45;0.73;;;0.73;;
10661;SDS011;5379;51.034;7.006;2023-04-24T06:42:13;0.60;;;0.60;;
10661;SDS011;5379;51.034;7.006;2023-04-24T06:44:40;0.70;;;0.70;;
10661;SDS011;5379;51.034;7.006;2023-04-24T06:47:07;0.60;;;0.60;;
10661;SDS011;5379;51.034;7.006;2023-04-24T06:49:36;0.57;;;0.57;;
10661;SDS011;5379;51.034;7.006;2023-04-24T06:52:03;0.67;;;0.60;;
10661;SDS011;5379;51.034;7.006;2023-04-24T06:54:31;0.73;;;0.73;;
10661;SDS011;5379;51.034;7.006;2023-04-24T06:56:58;0.60;;;0.60;;
10661;SDS011;5379;51.034;7.006;2023-04-24T06:59:27;1.83;;;0.63;;
10661;SDS011;5379;51.034;7.006;2023-04-24T07:01:54;0.60;;;0.60;;
10661;SDS011;5379;51.034;7.006;2023-04-24T07:04:22;0.70;;;0.70;;
10661;SDS011;5379;51.034;7.006;2023-04-24T07:06:52;1.60;;;0.70;;
10661;SDS011;5379;51.034;7.006;2023-04-24T07:09:26;0.83;;;0.83;;
10661;SDS011;5379;51.034;7.006;2023-04-24T07:12:08;0.67;;;0.67;;
10661;SDS011;5379;51.034;7.006;2023-04-24T07:14:35;1.53;;;1.43;;
10661;SDS011;5379;51.034;7.006;2023-04-24T07:17:02;0.73;;;0.73;;
10661;SDS011;5379;51.034;7.006;2023-04-24T07:19:30;0.83;;;0.83;;
10661;SDS011;5379;51.034;7.006;2023-04-24T07:21:58;1.90;;;1.63;;
10661;SDS011;5379;51.034;7.006;2023-04-24T07:24:25;0.70;;;0.70;;
10661;SDS011;5379;51.034;7.006;2023-04-24T07:26:53;0.80;;;0.80;;
10661;SDS011;5379;51.034;7.006;2023-04-24T07:29:20;1.03;;;1.03;;
10661;SDS011;5379;51.034;7.006;2023-04-24T07:31:47;1.17;;;1.17;;
10661;SDS011;5379;51.034;7.006;2023-04-24T07:34:14;2.83;;;1.57;;
10661;SDS011;5379;51.034;7.006;2023-04-24T07:36:41;2.73;;;2.47;;
10661;SDS011;5379;51.034;7.006;2023-04-24T07:39:10;2.37;;;1.67;;
10661;SDS011;5379;51.034;7.006;2023-04-24T07:41:37;1.00;;;1.00;;
10661;SDS011;5379;51.034;7.006;2023-04-24T07:44:04;1.13;;;1.13;;
10661;SDS011;5379;51.034;7.006;2023-04-24T07:46:33;1.23;;;1.13;;
10661;SDS011;5379;51.034;7.006;2023-04-24T07:49:20;0.97;;;0.97;;
10661;SDS011;5379;51.034;7.006;2023-04-24T07:52:15;0.47;;;0.47;;
10661;SDS011;5379;51.034;7.006;2023-04-24T07:55:16;0.70;;;0.70;;
10661;SDS011;5379;51.034;7.006;2023-04-24T07:58:01;0.50;;;0.50;;
10661;SDS011;5379;51.034;7.006;2023-04-24T08:00:48;1.07;;;1.00;;
10661;SDS011;5379;51.034;7.006;2023-04-24T08:03:23;0.60;;;0.60;;
10661;SDS011;5379;51.034;7.006;2023-04-24T08:06:02;0.83;;;0.83;;
10661;SDS011;5379;51.034;7.006;2023-04-24T08:08:54;0.87;;;0.87;;
10661;SDS011;5379;51.034;7.006;2023-04-24T08:14:26;3.30;;;0.77;;
10661;SDS011;5379;51.034;7.006;2023-04-24T08:17:09;0.80;;;0.47;;
10661;SDS011;5379;51.034;7.006;2023-04-24T08:19:50;0.20;;;0.20;;
10661;SDS011;5379;51.034;7.006;2023-04-24T08:22:35;0.17;;;0.17;;
10661;SDS011;5379;51.034;7.006;2023-04-24T08:25:07;0.43;;;0.40;;
10661;SDS011;5379;51.034;7.006;2023-04-24T08:28:02;0.70;;;0.70;;
10661;SDS011;5379;51.034;7.006;2023-04-24T08:34:13;0.97;;;0.67;;
10661;SDS011;5379;51.034;7.006;2023-04-24T08:37:31;0.90;;;0.90;;
10661;SDS011;5379;51.034;7.006;2023-04-24T08:41:01;0.40;;;0.40;;
10661;SDS011;5379;51.034;7.006;2023-04-24T08:57:35;0.67;;;0.67;;
10661;SDS011;5379;51.034;7.006;2023-04-24T09:00:16;0.50;;;0.50;;
10661;SDS011;5379;51.034;7.006;2023-04-24T09:03:09;0.80;;;0.80;;
10661;SDS011;5379;51.034;7.006;2023-04-24T09:05:47;0.80;;;0.80;;
10661;SDS011;5379;51.034;7.006;2023-04-24T09:08:58;0.63;;;0.63;;
10661;SDS011;5379;51.034;7.006;2023-04-24T09:12:03;0.80;;;0.80;;
10661;SDS011;5379;51.034;7.006;2023-04-24T09:17:14;0.47;;;0.47;;
10661;SDS011;5379;51.034;7.006;2023-04-24T09:19:41;0.70;;;0.70;;
10661;SDS011;5379;51.034;7.006;2023-04-24T09:22:09;0.20;;;0.20;;
10661;SDS011;5379;51.034;7.006;2023-04-24T09:24:39;0.70;;;0.70;;
10661;SDS011;5379;51.034;7.006;2023-04-24T09:27:07;0.87;;;0.80;;
10661;SDS011;5379;51.034;7.006;2023-04-24T09:29:37;0.53;;;0.53;;
10661;SDS011;5379;51.034;7.006;2023-04-24T09:32:18;1.40;;;0.90;;
10661;SDS011;5379;51.034;7.006;2023-04-24T09:34:47;0.93;;;0.93;;
10661;SDS011;5379;51.034;7.006;2023-04-24T09:37:34;0.57;;;0.57;;
10661;SDS011;5379;51.034;7.006;2023-04-24T09:40:13;0.93;;;0.93;;
10661;SDS011;5379;51.034;7.006;2023-04-24T09:42:45;1.00;;;1.00;;
10661;SDS011;5379;51.034;7.006;2023-04-24T09:45:17;1.50;;;1.27;;
10661;SDS011;5379;51.034;7.006;2023-04-24T09:47:44;1.60;;;0.87;;
10661;SDS011;5379;51.034;7.006;2023-04-24T09:50:12;1.20;;;1.20;;
10661;SDS011;5379;51.034;7.006;2023-04-24T09:52:41;0.87;;;0.87;;
10661;SDS011;5379;51.034;7.006;2023-04-24T09:55:13;1.70;;;1.43;;
10661;SDS011;5379;51.034;7.006;2023-04-24T09:57:51;1.17;;;1.17;;
10661;SDS011;5379;51.034;7.006;2023-04-24T10:00:22;1.53;;;1.43;;
10661;SDS011;5379;51.034;7.006;2023-04-24T10:02:54;1.23;;;1.23;;
10661;SDS011;5379;51.034;7.006;2023-04-24T10:05:27;1.00;;;1.00;;
10661;SDS011;5379;51.034;7.006;2023-04-24T10:07:57;1.67;;;1.57;;
10661;SDS011;5379;51.034;7.006;2023-04-24T10:10:38;1.30;;;1.30;;
10661;SDS011;5379;51.034;7.006;2023-04-24T10:13:21;1.40;;;1.30;;
10661;SDS011;5379;51.034;7.006;2023-04-24T10:15:50;1.63;;;1.60;;
10661;SDS011;5379;51.034;7.006;2023-04-24T10:18:17;2.23;;;2.10;;
10661;SDS011;5379;51.034;7.006;2023-04-24T10:20:46;2.00;;;1.90;;
10661;SDS011;5379;51.034;7.006;2023-04-24T10:23:13;3.57;;;2.20;;
10661;SDS011;5379;51.034;7.006;2023-04-24T10:25:44;1.90;;;1.80;;
10661;SDS011;5379;51.034;7.006;2023-04-24T10:28:11;1.80;;;1.70;;
10661;SDS011;5379;51.034;7.006;2023-04-24T10:30:40;2.87;;;2.23;;
10661;SDS011;5379;51.034;7.006;2023-04-24T10:33:09;2.23;;;1.93;;
10661;SDS011;5379;51.034;7.006;2023-04-24T10:35:38;2.87;;;1.80;;
10661;SDS011;5379;51.034;7.006;2023-04-24T10:38:08;1.93;;;1.83;;
10661;SDS011;5379;51.034;7.006;2023-04-24T10:40:38;2.50;;;2.00;;
10661;SDS011;5379;51.034;7.006;2023-04-24T10:43:06;1.33;;;1.23;;
10661;SDS011;5379;51.034;7.006;2023-04-24T10:45:36;1.03;;;1.03;;
10661;SDS011;5379;51.034;7.006;2023-04-24T10:48:05;2.47;;;1.53;;
10661;SDS011;5379;51.034;7.006;2023-04-24T10:50:42;1.50;;;1.40;;
10661;SDS011;5379;51.034;7.006;2023-04-24T10:53:15;1.33;;;1.10;;
10661;SDS011;5379;51.034;7.006;2023-04-24T10:55:44;1.30;;;1.30;;
10661;SDS011;5379;51.034;7.006;2023-04-24T10:58:13;1.40;;;1.30;;
10661;SDS011;5379;51.034;7.006;2023-04-24T11:00:42;1.57;;;1.57;;
10661;SDS011;5379;51.034;7.006;2023-04-24T11:05:58;1.00;;;1.00;;
10661;SDS011;5379;51.034;7.006;2023-04-24T11:08:31;1.47;;;1.37;;
10661;SDS011;5379;51.034;7.006;2023-04-24T11:11:03;1.10;;;1.03;;
10661;SDS011;5379;51.034;7.006;2023-04-24T11:16:37;0.83;;;0.83;;
10661;SDS011;5379;51.034;7.006;2023-04-24T11:19:17;1.27;;;1.23;;
10661;SDS011;5379;51.034;7.006;2023-04-24T11:21:55;3.77;;;1.17;;
10661;SDS011;5379;51.034;7.006;2023-04-24T11:24:26;0.77;;;0.77;;
10661;SDS011;5379;51.034;7.006;2023-04-24T11:26:58;1.23;;;1.13;;
10661;SDS011;5379;51.034;7.006;2023-04-24T11:29:40;1.60;;;1.30;;
10661;SDS011;5379;51.034;7.006;2023-04-24T11:32:19;1.03;;;1.03;;
10661;SDS011;5379;51.034;7.006;2023-04-24T11:34:52;2.37;;;1.30;;
10661;SDS011;5379;51.034;7.006;2023-04-24T11:37:21;1.33;;;1.23;;
10661;SDS011;5379;51.034;7.006;2023-04-24T11:39:50;1.40;;;1.30;;
10661;SDS011;5379;51.034;7.006;2023-04-24T11:42:18;1.20;;;1.20;;
10661;SDS011;5379;51.034;7.006;2023-04-24T11:44:46;1.17;;;1.07;;
10661;SDS011;5379;51.034;7.006;2023-04-24T11:47:14;1.83;;;1.13;;
10661;SDS011;5379;51.034;7.006;2023-04-24T11:49:40;1.90;;;1.70;;
10661;SDS011;5379;51.034;7.006;2023-04-24T11:52:09;3.20;;;1.57;;
10661;SDS011;5379;51.034;7.006;2023-04-24T11:54:44;1.30;;;1.23;;
10661;SDS011;5379;51.034;7.006;2023-04-24T11:57:14;1.03;;;1.03;;
10661;SDS011;5379;51.034;7.006;2023-04-24T11:59:41;1.87;;;1.77;;
10661;SDS011;5379;51.034;7.006;2023-04-24T12:02:08;1.20;;;1.20;;
10661;SDS011;5379;51.034;7.006;2023-04-24T12:04:47;3.10;;;1.77;;
10661;SDS011;5379;51.034;7.006;2023-04-24T12:07:15;5.13;;;1.37;;
10661;SDS011;5379;51.034;7.006;2023-04-24T12:09:43;1.43;;;1.17;;
10661;SDS011;5379;51.034;7.006;2023-04-24T12:12:11;1.53;;;1.43;;
10661;SDS011;5379;51.034;7.006;2023-04-24T12:14:43;2.20;;;1.27;;
10661;SDS011;5379;51.034;7.006;2023-04-24T12:17:10;2.23;;;1.40;;
10661;SDS011;5379;51.034;7.006;2023-04-24T12:19:37;1.70;;;1.60;;
10661;SDS011;5379;51.034;7.006;2023-04-24T12:22:10;1.53;;;1.43;;
10661;SDS011;5379;51.034;7.006;2023-04-24T12:27:24;1.20;;;1.10;;
10661;SDS011;5379;51.034;7.006;2023-04-24T12:29:52;1.60;;;1.50;;
10661;SDS011;5379;51.034;7.006;2023-04-24T12:32:19;2.30;;;1.47;;
10661;SDS011;5379;51.034;7.006;2023-04-24T12:34:48;11.03;;;3.27;;
10661;SDS011;5379;51.034;7.006;2023-04-24T12:37:19;0.40;;;0.40;;
10661;SDS011;5379;51.034;7.006;2023-04-24T12:40:06;1.07;;;1.07;;
10661;SDS011;5379;51.034;7.006;2023-04-24T12:42:53;0.90;;;0.90;;
10661;SDS011;5379;51.034;7.006;2023-04-24T12:45:28;1.77;;;1.27;;
10661;SDS011;5379;51.034;7.006;2023-04-24T12:47:58;1.03;;;1.03;;
10661;SDS011;5379;51.034;7.006;2023-04-24T12:50:25;1.23;;;1.13;;
10661;SDS011;5379;51.034;7.006;2023-04-24T12:52:52;1.63;;;1.20;;
10661;SDS011;5379;51.034;7.006;2023-04-24T12:55:20;3.87;;;1.73;;
10661;SDS011;5379;51.034;7.006;2023-04-24T12:57:47;1.20;;;1.20;;
10661;SDS011;5379;51.034;7.006;2023-04-24T13:00:14;1.47;;;1.10;;
10661;SDS011;5379;51.034;7.006;2023-04-24T13:02:42;8.03;;;1.70;;
10661;SDS011;5379;51.034;7.006;2023-04-24T13:05:09;1.30;;;1.20;;
10661;SDS011;5379;51.034;7.006;2023-04-24T13:07:36;1.43;;;1.33;;
10661;SDS011;5379;51.034;7.006;2023-04-24T13:10:03;1.17;;;1.07;;
10661;SDS011;5379;51.034;7.006;2023-04-24T13:12:33;0.70;;;0.70;;
10661;SDS011;5379;51.034;7.006;2023-04-24T13:15:00;4.13;;;1.80;;
10661;SDS011;5379;51.034;7.006;2023-04-24T13:17:28;1.60;;;1.47;;
10661;SDS011;5379;51.034;7.006;2023-04-24T13:19:54;1.20;;;1.10;;
10661;SDS011;5379;51.034;7.006;2023-04-24T13:22:22;1.07;;;1.07;;
10661;SDS011;5379;51.034;7.006;2023-04-24T13:24:49;1.70;;;1.30;;
10661;SDS011;5379;51.034;7.006;2023-04-24T13:27:16;1.03;;;1.03;;
10661;SDS011;5379;51.034;7.006;2023-04-24T13:29:45;1.00;;;1.00;;
10661;SDS011;5379;51.034;7.006;2023-04-24T13:32:15;1.27;;;1.20;;
10661;SDS011;5379;51.034;7.006;2023-04-24T13:34:43;1.20;;;1.10;;
10661;SDS011;5379;51.034;7.006;2023-04-24T13:37:10;1.27;;;1.17;;
10661;SDS011;5379;51.034;7.006;2023-04-24T13:39:37;2.23;;;1.40;;
10661;SDS011;5379;51.034;7.006;2023-04-24T13:42:04;2.07;;;1.87;;
10661;SDS011;5379;51.034;7.006;2023-04-24T13:44:34;3.00;;;1.00;;
10661;SDS011;5379;51.034;7.006;2023-04-24T13:47:02;0.93;;;0.93;;
10661;SDS011;5379;51.034;7.006;2023-04-24T13:49:29;1.40;;;1.30;;
10661;SDS011;5379;51.034;7.006;2023-04-24T13:51:56;1.00;;;0.90;;
10661;SDS011;5379;51.034;7.006;2023-04-24T13:54:24;0.90;;;0.90;;
10661;SDS011;5379;51.034;7.006;2023-04-24T13:56:51;0.80;;;0.80;;
10661;SDS011;5379;51.034;7.006;2023-04-24T13:59:19;1.27;;;1.17;;
10661;SDS011;5379;51.034;7.006;2023-04-24T14:01:46;1.43;;;0.80;;
10661;SDS011;5379;51.034;7.006;2023-04-24T14:04:15;0.70;;;0.70;;
10661;SDS011;5379;51.034;7.006;2023-04-24T14:06:42;1.57;;;0.97;;
10661;SDS011;5379;51.034;7.006;2023-04-24T14:09:12;4.03;;;0.93;;
10661;SDS011;5379;51.034;7.006;2023-04-24T14:11:39;0.90;;;0.90;;
10661;SDS011;5379;51.034;7.006;2023-04-24T14:14:06;0.87;;;0.80;;
10661;SDS011;5379;51.034;7.006;2023-04-24T14:16:34;0.93;;;0.90;;
10661;SDS011;5379;51.034;7.006;2023-04-24T14:19:01;0.70;;;0.70;;
10661;SDS011;5379;51.034;7.006;2023-04-24T14:21:29;0.60;;;0.60;;
10661;SDS011;5379;51.034;7.006;2023-04-24T14:23:56;1.63;;;1.40;;
10661;SDS011;5379;51.034;7.006;2023-04-24T14:26:23;0.90;;;0.90;;
10661;SDS011;5379;51.034;7.006;2023-04-24T14:28:50;1.00;;;1.00;;
10661;SDS011;5379;51.034;7.006;2023-04-24T14:31:18;1.13;;;1.13;;
10661;SDS011;5379;51.034;7.006;2023-04-24T14:33:45;1.27;;;1.17;;
10661;SDS011;5379;51.034;7.006;2023-04-24T14:36:12;0.90;;;0.90;;
10661;SDS011;5379;51.034;7.006;2023-04-24T14:38:41;1.27;;;1.23;;
10661;SDS011;5379;51.034;7.006;2023-04-24T14:41:08;1.10;;;1.10;;
10661;SDS011;5379;51.034;7.006;2023-04-24T14:43:36;1.40;;;1.27;;
10661;SDS011;5379;51.034;7.006;2023-04-24T14:46:03;1.53;;;1.10;;
10661;SDS011;5379;51.034;7.006;2023-04-24T14:48:31;3.93;;;1.53;;
10661;SDS011;5379;51.034;7.006;2023-04-24T14:50:58;1.33;;;1.33;;
10661;SDS011;5379;51.034;7.006;2023-04-24T14:53:25;1.27;;;0.80;;
10661;SDS011;5379;51.034;7.006;2023-04-24T14:55:53;1.23;;;0.90;;
10661;SDS011;5379;51.034;7.006;2023-04-24T14:58:20;2.00;;;0.80;;
10661;SDS011;5379;51.034;7.006;2023-04-24T15:00:48;0.97;;;0.97;;
10661;SDS011;5379;51.034;7.006;2023-04-24T15:03:17;1.63;;;1.10;;
10661;SDS011;5379;51.034;7.006;2023-04-24T15:05:45;4.03;;;0.87;;
10661;SDS011;5379;51.034;7.006;2023-04-24T15:08:12;0.67;;;0.67;;
10661;SDS011;5379;51.034;7.006;2023-04-24T15:10:39;1.40;;;1.30;;
10661;SDS011;5379;51.034;7.006;2023-04-24T15:13:07;1.43;;;1.00;;
10661;SDS011;5379;51.034;7.006;2023-04-24T15:15:34;0.80;;;0.80;;
10661;SDS011;5379;51.034;7.006;2023-04-24T15:18:02;0.60;;;0.60;;
10661;SDS011;5379;51.034;7.006;2023-04-24T15:20:30;1.13;;;1.00;;
10661;SDS011;5379;51.034;7.006;2023-04-24T15:22:58;0.93;;;0.93;;
10661;SDS011;5379;51.034;7.006;2023-04-24T15:25:25;0.80;;;0.80;;
10661;SDS011;5379;51.034;7.006;2023-04-24T15:27:52;7.93;;;0.90;;
10661;SDS011;5379;51.034;7.006;2023-04-24T15:30:20;1.03;;;0.90;;
10661;SDS011;5379;51.034;7.006;2023-04-24T15:32:47;1.10;;;1.00;;
10661;SDS011;5379;51.034;7.006;2023-04-24T15:35:14;1.40;;;1.30;;
10661;SDS011;5379;51.034;7.006;2023-04-24T15:37:42;1.43;;;1.10;;
10661;SDS011;5379;51.034;7.006;2023-04-24T15:40:10;0.70;;;0.70;;
10661;SDS011;5379;51.034;7.006;2023-04-24T15:42:38;1.47;;;1.10;;
10661;SDS011;5379;51.034;7.006;2023-04-24T15:45:05;0.97;;;0.97;;
10661;SDS011;5379;51.034;7.006;2023-04-24T15:47:34;1.43;;;0.90;;
10661;SDS011;5379;51.034;7.006;2023-04-24T15:50:01;0.77;;;0.77;;
10661;SDS011;5379;51.034;7.006;2023-04-24T15:52:29;0.80;;;0.80;;
10661;SDS011;5379;51.034;7.006;2023-04-24T15:54:56;0.70;;;0.70;;
10661;SDS011;5379;51.034;7.006;2023-04-24T15:57:23;0.77;;;0.77;;
10661;SDS011;5379;51.034;7.006;2023-04-24T15:59:50;0.77;;;0.77;;
10661;SDS011;5379;51.034;7.006;2023-04-24T16:02:18;1.10;;;1.00;;
10661;SDS011;5379;51.034;7.006;2023-04-24T16:04:46;0.83;;;0.83;;
10661;SDS011;5379;51.034;7.006;2023-04-24T16:07:15;0.70;;;0.67;;
10661;SDS011;5379;51.034;7.006;2023-04-24T16:09:43;0.90;;;0.90;;
10661;SDS011;5379;51.034;7.006;2023-04-24T16:12:10;0.90;;;0.90;;
10661;SDS011;5379;51.034;7.006;2023-04-24T16:14:37;0.70;;;0.70;;
10661;SDS011;5379;51.034;7.006;2023-04-24T16:17:04;0.63;;;0.63;;
10661;SDS011;5379;51.034;7.006;2023-04-24T16:19:31;1.23;;;1.13;;
10661;SDS011;5379;51.034;7.006;2023-04-24T16:22:00;4.33;;;1.10;;
10661;SDS011;5379;51.034;7.006;2023-04-24T16:24:27;1.10;;;1.10;;
10661;SDS011;5379;51.034;7.006;2023-04-24T16:26:55;1.33;;;1.23;;
10661;SDS011;5379;51.034;7.006;2023-04-24T16:29:22;1.20;;;1.10;;
10661;SDS011;5379;51.034;7.006;2023-04-24T16:31:49;0.70;;;0.70;;
10661;SDS011;5379;51.034;7.006;2023-04-24T16:34:16;3.67;;;0.97;;
10661;SDS011;5379;51.034;7.006;2023-04-24T16:36:43;0.60;;;0.60;;
10661;SDS011;5379;51.034;7.006;2023-04-24T16:39:11;0.90;;;0.90;;
10661;SDS011;5379;51.034;7.006;2023-04-24T16:41:38;0.70;;;0.70;;
10661;SDS011;5379;51.034;7.006;2023-04-24T16:44:06;0.63;;;0.63;;
10661;SDS011;5379;51.034;7.006;2023-04-24T16:46:33;5.27;;;1.20;;
10661;SDS011;5379;51.034;7.006;2023-04-24T16:49:00;0.60;;;0.60;;
10661;SDS011;5379;51.034;7.006;2023-04-24T16:51:26;0.70;;;0.70;;
10661;SDS011;5379;51.034;7.006;2023-04-24T16:53:54;1.00;;;1.00;;
10661;SDS011;5379;51.034;7.006;2023-04-24T16:56:22;1.03;;;1.00;;
10661;SDS011;5379;51.034;7.006;2023-04-24T16:58:49;1.43;;;0.77;;
10661;SDS011;5379;51.034;7.006;2023-04-24T17:01:16;0.60;;;0.60;;
10661;SDS011;5379;51.034;7.006;2023-04-24T17:03:43;0.50;;;0.40;;
10661;SDS011;5379;51.034;7.006;2023-04-24T17:06:10;0.57;;;0.57;;
10661;SDS011;5379;51.034;7.006;2023-04-24T17:08:37;0.80;;;0.80;;
10661;SDS011;5379;51.034;7.006;2023-04-24T17:11:04;0.60;;;0.60;;
10661;SDS011;5379;51.034;7.006;2023-04-24T17:13:32;1.00;;;0.87;;
10661;SDS011;5379;51.034;7.006;2023-04-24T17:16:00;1.20;;;1.10;;
10661;SDS011;5379;51.034;7.006;2023-04-24T17:18:27;0.60;;;0.60;;
10661;SDS011;5379;51.034;7.006;2023-04-24T17:20:54;1.10;;;1.00;;
10661;SDS011;5379;51.034;7.006;2023-04-24T17:23:21;0.70;;;0.70;;
10661;SDS011;5379;51.034;7.006;2023-04-24T17:25:47;0.80;;;0.80;;
10661;SDS011;5379;51.034;7.006;2023-04-24T17:28:18;0.47;;;0.47;;
10661;SDS011;5379;51.034;7.006;2023-04-24T17:30:51;0.93;;;0.57;;
10661;SDS011;5379;51.034;7.006;2023-04-24T17:33:21;0.40;;;0.30;;
10661;SDS011;5379;51.034;7.006;2023-04-24T17:35:48;0.67;;;0.67;;
10661;SDS011;5379;51.034;7.006;2023-04-24T17:38:15;1.00;;;1.00;;
10661;SDS011;5379;51.034;7.006;2023-04-24T17:40:43;0.50;;;0.50;;
10661;SDS011;5379;51.034;7.006;2023-04-24T17:43:10;1.13;;;0.83;;
10661;SDS011;5379;51.034;7.006;2023-04-24T17:45:41;1.17;;;0.77;;
10661;SDS011;5379;51.034;7.006;2023-04-24T17:48:10;0.67;;;0.67;;
10661;SDS011;5379;51.034;7.006;2023-04-24T17:50:37;0.80;;;0.80;;
10661;SDS011;5379;51.034;7.006;2023-04-24T17:53:04;0.87;;;0.80;;
10661;SDS011;5379;51.034;7.006;2023-04-24T17:55:32;0.90;;;0.90;;
10661;SDS011;5379;51.034;7.006;2023-04-24T17:57:59;1.17;;;0.77;;
10661;SDS011;5379;51.034;7.006;2023-04-24T18:00:27;0.53;;;0.53;;
10661;SDS011;5379;51.034;7.006;2023-04-24T18:02:54;0.30;;;0.30;;
10661;SDS011;5379;51.034;7.006;2023-04-24T18:05:26;0.60;;;0.60;;
10661;SDS011;5379;51.034;7.006;2023-04-24T18:07:53;0.40;;;0.40;;
10661;SDS011;5379;51.034;7.006;2023-04-24T18:10:20;0.73;;;0.73;;
10661;SDS011;5379;51.034;7.006;2023-04-24T18:12:48;0.63;;;0.63;;
10661;SDS011;5379;51.034;7.006;2023-04-24T18:15:16;0.73;;;0.73;;
10661;SDS011;5379;51.034;7.006;2023-04-24T18:17:43;0.70;;;0.70;;
10661;SDS011;5379;51.034;7.006;2023-04-24T18:20:10;0.90;;;0.90;;
10661;SDS011;5379;51.034;7.006;2023-04-24T18:22:40;0.30;;;0.30;;
10661;SDS011;5379;51.034;7.006;2023-04-24T18:25:07;0.63;;;0.63;;
10661;SDS011;5379;51.034;7.006;2023-04-24T18:27:35;0.80;;;0.80;;
10661;SDS011;5379;51.034;7.006;2023-04-24T18:30:02;0.60;;;0.60;;
10661;SDS011;5379;51.034;7.006;2023-04-24T18:32:30;0.70;;;0.70;;
10661;SDS011;5379;51.034;7.006;2023-04-24T18:34:58;1.10;;;1.03;;
10661;SDS011;5379;51.034;7.006;2023-04-24T18:37:25;1.37;;;1.27;;
10661;SDS011;5379;51.034;7.006;2023-04-24T18:39:53;2.13;;;1.00;;
10661;SDS011;5379;51.034;7.006;2023-04-24T18:42:20;2.47;;;1.20;;
10661;SDS011;5379;51.034;7.006;2023-04-24T18:44:47;1.97;;;0.93;;
10661;SDS011;5379;51.034;7.006;2023-04-24T18:47:15;1.37;;;1.27;;
10661;SDS011;5379;51.034;7.006;2023-04-24T18:49:42;0.53;;;0.53;;
10661;SDS011;5379;51.034;7.006;2023-04-24T18:52:09;0.63;;;0.63;;
10661;SDS011;5379;51.034;7.006;2023-04-24T18:54:36;1.07;;;0.70;;
10661;SDS011;5379;51.034;7.006;2023-04-24T18:57:06;0.80;;;0.80;;
10661;SDS011;5379;51.034;7.006;2023-04-24T18:59:33;0.73;;;0.70;;
10661;SDS011;5379;51.034;7.006;2023-04-24T19:02:00;0.60;;;0.60;;
10661;SDS011;5379;51.034;7.006;2023-04-24T19:04:27;0.90;;;0.90;;
10661;SDS011;5379;51.034;7.006;2023-04-24T19:06:54;0.80;;;0.80;;
10661;SDS011;5379;51.034;7.006;2023-04-24T19:09:21;0.60;;;0.60;;
10661;SDS011;5379;51.034;7.006;2023-04-24T19:11:48;0.43;;;0.43;;
10661;SDS011;5379;51.034;7.006;2023-04-24T19:14:16;0.83;;;0.83;;
10661;SDS011;5379;51.034;7.006;2023-04-24T19:16:43;0.50;;;0.50;;
10661;SDS011;5379;51.034;7.006;2023-04-24T19:19:10;0.97;;;0.97;;
10661;SDS011;5379;51.034;7.006;2023-04-24T19:21:37;0.93;;;0.70;;
10661;SDS011;5379;51.034;7.006;2023-04-24T19:24:04;1.60;;;1.10;;
10661;SDS011;5379;51.034;7.006;2023-04-24T19:26:33;2.13;;;0.83;;
10661;SDS011;5379;51.034;7.006;2023-04-24T19:29:00;1.57;;;1.20;;
10661;SDS011;5379;51.034;7.006;2023-04-24T19:31:28;0.87;;;0.87;;
10661;SDS011;5379;51.034;7.006;2023-04-24T19:33:55;3.70;;;1.17;;
10661;SDS011;5379;51.034;7.006;2023-04-24T19:36:22;1.13;;;1.03;;
10661;SDS011;5379;51.034;7.006;2023-04-24T19:38:49;1.07;;;0.97;;
10661;SDS011;5379;51.034;7.006;2023-04-24T19:41:16;0.70;;;0.70;;
10661;SDS011;5379;51.034;7.006;2023-04-24T19:43:43;0.83;;;0.83;;
10661;SDS011;5379;51.034;7.006;2023-04-24T19:46:11;1.43;;;1.23;;
10661;SDS011;5379;51.034;7.006;2023-04-24T19:48:39;0.90;;;0.90;;
10661;SDS011;5379;51.034;7.006;2023-04-24T19:51:06;15.30;;;1.23;;
10661;SDS011;5379;51.034;7.006;2023-04-24T19:53:33;0.80;;;0.80;;
10661;SDS011;5379;51.034;7.006;2023-04-24T19:56:00;0.93;;;0.93;;
10661;SDS011;5379;51.034;7.006;2023-04-24T19:58:27;0.90;;;0.90;;
10661;SDS011;5379;51.034;7.006;2023-04-24T20:00:55;0.90;;;0.90;;
10661;SDS011;5379;51.034;7.006;2023-04-24T20:03:22;1.00;;;0.90;;
10661;SDS011;5379;51.034;7.006;2023-04-24T20:05:50;0.97;;;0.97;;
10661;SDS011;5379;51.034;7.006;2023-04-24T20:08:17;0.90;;;0.90;;
10661;SDS011;5379;51.034;7.006;2023-04-24T20:10:44;0.70;;;0.70;;
10661;SDS011;5379;51.034;7.006;2023-04-24T20:13:11;1.13;;;0.80;;
10661;SDS011;5379;51.034;7.006;2023-04-24T20:15:38;0.97;;;0.97;;
10661;SDS011;5379;51.034;7.006;2023-04-24T20:18:05;1.70;;;0.90;;